createdAt,value
2019-06-15T00:00:00.047Z,19.78
2019-06-15T00:01:00.034Z,19.79
2019-06-15T00:02:00.040Z,19.83
2019-06-15T00:03:00.013Z,19.73
2019-06-15T00:03:59.998Z,19.80
2019-06-15T00:04:59.989Z,19.68
2019-06-15T00:05:59.975Z,19.78
2019-06-15T00:07:00.002Z,19.72
2019-06-15T00:07:59.954Z,19.65
2019-06-15T00:08:59.942Z,19.68
2019-06-15T00:09:59.931Z,19.57
2019-06-15T00:10:59.942Z,19.65
2019-06-15T00:11:59.911Z,19.55
2019-06-15T00:12:59.897Z,19.53
2019-06-15T00:13:59.887Z,19.55
2019-06-15T00:14:59.875Z,19.60
2019-06-15T00:15:59.864Z,19.50
2019-06-15T00:16:59.868Z,19.54
2019-06-15T00:17:59.837Z,19.51
2019-06-15T00:18:59.825Z,19.53
2019-06-15T00:19:59.833Z,19.60
2019-06-15T00:20:59.825Z,19.63
2019-06-15T00:21:59.796Z,19.57
2019-06-15T00:22:59.780Z,19.51
2019-06-15T00:23:59.767Z,19.61
2019-06-15T00:24:59.758Z,19.58
2019-06-15T00:25:59.762Z,19.48
2019-06-15T00:26:59.732Z,19.46
2019-06-15T00:27:59.722Z,19.61
2019-06-15T00:28:59.712Z,19.50
2019-06-15T00:29:59.699Z,19.51
2019-06-15T00:30:59.707Z,19.39
2019-06-15T00:31:59.676Z,19.50
2019-06-15T00:32:59.673Z,19.53
2019-06-15T00:33:59.652Z,19.53
2019-06-15T00:40:48.623Z,19.38
2019-06-15T00:41:48.624Z,19.36
2019-06-15T00:42:48.585Z,19.42
2019-06-15T00:43:48.570Z,19.39
2019-06-15T00:44:48.560Z,19.35
2019-06-15T00:45:48.551Z,19.20
2019-06-15T00:46:48.537Z,19.36
2019-06-15T00:47:48.545Z,19.28
2019-06-15T00:48:48.515Z,19.40
2019-06-15T00:49:48.506Z,19.35
2019-06-15T00:50:48.497Z,19.31
2019-06-15T00:51:48.483Z,19.31
2019-06-15T00:52:48.484Z,19.32
2019-06-15T00:53:48.461Z,19.28
2019-06-15T00:54:50.668Z,19.28
2019-06-15T00:55:48.433Z,19.36
2019-06-15T00:56:48.419Z,19.32
2019-06-15T00:57:48.532Z,19.31
2019-06-15T00:58:48.397Z,19.32
2019-06-15T00:59:48.495Z,19.23
2019-06-15T01:00:48.376Z,19.28
2019-06-15T01:01:48.364Z,19.33
2019-06-15T01:02:48.369Z,19.31
2019-06-15T01:03:48.339Z,19.29
2019-06-15T01:04:48.326Z,19.32
2019-06-15T01:05:48.319Z,19.24
2019-06-15T01:06:48.304Z,19.24
2019-06-15T01:07:48.311Z,19.29
2019-06-15T01:08:48.281Z,19.20
2019-06-15T01:09:48.272Z,19.25
2019-06-15T01:10:48.260Z,19.17
2019-06-15T01:11:48.248Z,19.20
2019-06-15T01:12:48.254Z,19.11
2019-06-15T01:13:48.222Z,19.14
2019-06-15T01:14:48.211Z,19.01
2019-06-15T01:15:48.205Z,18.98
2019-06-15T01:16:48.189Z,18.97
2019-06-15T01:17:48.201Z,18.98
2019-06-15T01:18:48.170Z,19.01
2019-06-15T01:19:48.156Z,18.98
2019-06-15T01:20:48.142Z,18.95
2019-06-15T01:21:48.164Z,19.14
2019-06-15T01:22:48.145Z,19.05
2019-06-15T01:23:48.108Z,19.10
2019-06-15T01:24:48.098Z,19.10
2019-06-15T01:25:48.094Z,19.05
2019-06-15T01:26:48.077Z,19.05
2019-06-15T01:27:48.061Z,19.11
2019-06-15T01:28:48.067Z,18.92
2019-06-15T01:29:48.040Z,19.08
2019-06-15T01:30:48.027Z,18.97
2019-06-15T01:31:48.015Z,19.10
2019-06-15T01:32:48.006Z,18.99
2019-06-15T01:33:48.009Z,18.91
2019-06-15T01:34:47.981Z,18.84
2019-06-15T01:35:47.968Z,18.83
2019-06-15T01:36:47.960Z,18.90
2019-06-15T01:37:47.944Z,18.82
2019-06-15T01:38:47.953Z,18.80
2019-06-15T01:39:47.927Z,18.72
2019-06-15T01:40:47.910Z,18.77
2019-06-15T01:41:47.898Z,18.80
2019-06-15T01:42:47.921Z,18.79
2019-06-15T01:43:47.893Z,18.82
2019-06-15T01:44:47.867Z,18.79
2019-06-15T01:45:47.855Z,18.82
2019-06-15T01:46:47.841Z,18.87
2019-06-15T01:47:47.831Z,18.79
2019-06-15T01:48:47.838Z,18.86
2019-06-15T01:49:47.803Z,18.86
2019-06-15T01:50:47.794Z,18.86
2019-06-15T01:51:47.782Z,18.84
2019-06-15T01:52:47.774Z,18.82
2019-06-15T01:53:47.759Z,18.83
2019-06-15T01:54:47.766Z,18.79
2019-06-15T01:55:47.735Z,18.82
2019-06-15T01:56:47.725Z,18.73
2019-06-15T01:57:47.712Z,18.68
2019-06-15T01:58:47.700Z,18.62
2019-06-15T01:59:47.711Z,18.72
2019-06-15T02:00:47.677Z,18.65
2019-06-15T02:01:47.663Z,18.76
2019-06-15T02:02:47.651Z,18.73
2019-06-15T02:03:47.641Z,18.70
2019-06-15T02:04:47.652Z,18.68
2019-06-15T02:05:47.619Z,18.62
2019-06-15T02:06:47.607Z,18.68
2019-06-15T02:07:47.595Z,18.76
2019-06-15T02:08:47.609Z,18.76
2019-06-15T02:09:47.593Z,18.72
2019-06-15T02:10:47.559Z,18.72
2019-06-15T02:11:47.555Z,18.70
2019-06-15T02:12:47.536Z,18.59
2019-06-15T02:13:47.527Z,18.54
2019-06-15T02:14:47.512Z,18.59
2019-06-15T02:15:47.525Z,18.57
2019-06-15T02:16:47.490Z,18.52
2019-06-15T02:17:47.477Z,18.47
2019-06-15T02:18:47.468Z,18.47
2019-06-15T02:19:47.464Z,18.49
2019-06-15T02:20:47.465Z,18.40
2019-06-15T02:21:47.430Z,18.42
2019-06-15T02:22:47.421Z,18.49
2019-06-15T02:23:47.410Z,18.42
2019-06-15T02:24:47.397Z,18.39
2019-06-15T02:25:47.405Z,18.34
2019-06-15T02:26:47.374Z,18.31
2019-06-15T02:27:47.363Z,18.40
2019-06-15T02:28:47.354Z,18.40
2019-06-15T02:29:47.341Z,18.39
2019-06-15T02:30:47.348Z,18.25
2019-06-15T02:31:47.317Z,18.31
2019-06-15T02:32:47.306Z,18.37
2019-06-15T02:33:47.294Z,18.27
2019-06-15T02:34:47.280Z,18.40
2019-06-15T02:35:47.288Z,18.43
2019-06-15T02:36:47.260Z,18.54
2019-06-15T02:37:47.249Z,18.43
2019-06-15T02:38:47.239Z,18.44
2019-06-15T02:39:47.222Z,18.42
2019-06-15T02:40:47.227Z,18.44
2019-06-15T02:41:47.200Z,18.47
2019-06-15T02:42:47.185Z,18.37
2019-06-15T02:43:47.175Z,18.40
2019-06-15T02:44:47.184Z,18.39
2019-06-15T02:45:47.174Z,18.52
2019-06-15T02:46:47.143Z,18.42
2019-06-15T02:47:47.128Z,18.54
2019-06-15T02:48:47.118Z,18.50
2019-06-15T02:49:47.109Z,18.54
2019-06-15T02:50:47.114Z,18.54
2019-06-15T02:51:47.086Z,18.50
2019-06-15T02:52:47.074Z,18.42
2019-06-15T02:53:47.059Z,18.36
2019-06-15T02:54:47.047Z,18.43
2019-06-15T02:55:50.475Z,18.40
2019-06-15T02:56:47.023Z,18.33
2019-06-15T02:57:47.015Z,18.40
2019-06-15T02:58:47.002Z,18.43
2019-06-15T02:59:46.991Z,18.37
2019-06-15T03:00:46.999Z,18.37
2019-06-15T03:01:46.969Z,18.31
2019-06-15T03:02:46.957Z,18.36
2019-06-15T03:03:46.944Z,18.37
2019-06-15T03:04:46.933Z,18.43
2019-06-15T03:05:46.978Z,18.40
2019-06-15T03:06:46.908Z,18.44
2019-06-15T03:07:46.897Z,18.47
2019-06-15T03:08:46.888Z,18.42
2019-06-15T03:09:46.874Z,18.43
2019-06-15T03:10:46.894Z,18.44
2019-06-15T03:11:46.854Z,18.33
2019-06-15T03:12:46.862Z,18.44
2019-06-15T03:13:46.830Z,18.37
2019-06-15T03:14:46.818Z,18.43
2019-06-15T03:15:46.806Z,18.39
2019-06-15T03:16:46.814Z,18.36
2019-06-15T03:17:46.784Z,18.46
2019-06-15T03:18:46.773Z,18.47
2019-06-15T03:19:46.759Z,18.40
2019-06-15T03:20:46.765Z,18.46
2019-06-15T03:21:46.738Z,18.47
2019-06-15T03:22:46.727Z,18.47
2019-06-15T03:23:46.713Z,18.43
2019-06-15T03:24:46.700Z,18.40
2019-06-15T03:25:46.711Z,18.39
2019-06-15T03:26:46.764Z,18.39
2019-06-15T03:27:46.668Z,18.43
2019-06-15T03:28:46.659Z,18.42
2019-06-15T03:29:46.644Z,18.39
2019-06-15T03:30:46.654Z,18.31
2019-06-15T03:31:46.623Z,18.49
2019-06-15T03:32:46.609Z,18.49
2019-06-15T03:33:46.604Z,18.37
2019-06-15T03:34:46.589Z,18.43
2019-06-15T03:35:46.578Z,18.39
2019-06-15T03:36:46.584Z,18.34
2019-06-15T03:37:46.557Z,18.40
2019-06-15T03:38:46.539Z,18.47
2019-06-15T03:39:46.530Z,18.43
2019-06-15T03:40:46.518Z,18.46
2019-06-15T03:41:46.528Z,18.55
2019-06-15T03:42:46.494Z,18.50
2019-06-15T03:43:46.483Z,18.49
2019-06-15T03:44:46.475Z,18.61
2019-06-15T03:45:46.458Z,18.59
2019-06-15T03:46:46.466Z,18.57
2019-06-15T03:47:46.439Z,18.59
2019-06-15T03:48:46.427Z,18.52
2019-06-15T03:49:46.414Z,18.57
2019-06-15T03:50:46.408Z,18.54
2019-06-15T03:51:46.418Z,18.46
2019-06-15T03:52:46.380Z,18.52
2019-06-15T03:53:46.367Z,18.57
2019-06-15T03:54:46.354Z,18.59
2019-06-15T03:55:46.344Z,18.61
2019-06-15T03:56:46.352Z,18.58
2019-06-15T03:57:46.321Z,18.52
2019-06-15T03:58:46.308Z,18.57
2019-06-15T03:59:46.300Z,18.64
2019-06-15T04:00:46.288Z,18.57
2019-06-15T04:01:46.297Z,18.57
2019-06-15T04:02:46.263Z,18.57
2019-06-15T04:03:46.251Z,18.62
2019-06-15T04:04:46.273Z,18.72
2019-06-15T04:05:46.229Z,18.74
2019-06-15T04:06:46.218Z,18.70
2019-06-15T04:07:46.225Z,18.64
2019-06-15T04:08:46.196Z,18.76
2019-06-15T04:09:46.184Z,18.64
2019-06-15T04:10:46.170Z,18.72
2019-06-15T04:11:46.158Z,18.68
2019-06-15T04:12:46.170Z,18.70
2019-06-15T04:13:46.136Z,18.72
2019-06-15T04:14:46.125Z,18.77
2019-06-15T04:15:46.113Z,18.80
2019-06-15T04:16:46.098Z,18.87
2019-06-15T04:17:46.105Z,18.94
2019-06-15T04:18:46.076Z,18.92
2019-06-15T04:19:46.063Z,18.91
2019-06-15T04:20:46.053Z,19.10
2019-06-15T04:21:46.043Z,19.06
2019-06-15T04:22:46.048Z,19.17
2019-06-15T04:23:46.015Z,19.08
2019-06-15T04:24:46.006Z,19.17
2019-06-15T04:25:45.991Z,19.25
2019-06-15T04:26:45.980Z,19.28
2019-06-15T04:27:46.006Z,19.25
2019-06-15T04:28:45.958Z,19.33
2019-06-15T04:29:45.943Z,19.32
2019-06-15T04:30:45.934Z,19.21
2019-06-15T04:31:45.919Z,19.35
2019-06-15T04:32:45.932Z,19.29
2019-06-15T04:33:45.897Z,19.28
2019-06-15T04:34:45.884Z,19.25
2019-06-15T04:35:45.873Z,19.24
2019-06-15T04:36:45.859Z,19.06
2019-06-15T04:37:45.850Z,19.05
2019-06-15T04:38:45.858Z,19.13
2019-06-15T04:39:45.830Z,19.06
2019-06-15T04:40:45.824Z,18.92
2019-06-15T04:41:52.837Z,18.92
2019-06-15T04:42:45.790Z,18.94
2019-06-15T04:43:45.795Z,18.94
2019-06-15T04:44:45.768Z,18.91
2019-06-15T04:45:45.753Z,18.97
2019-06-15T04:46:45.742Z,18.92
2019-06-15T04:47:45.733Z,18.86
2019-06-15T04:48:45.739Z,18.83
2019-06-15T04:49:45.711Z,18.77
2019-06-15T04:50:45.699Z,18.91
2019-06-15T04:51:45.684Z,18.82
2019-06-15T04:52:45.670Z,18.90
2019-06-15T04:53:45.679Z,18.95
2019-06-15T04:54:45.650Z,18.91
2019-06-15T04:55:45.635Z,18.94
2019-06-15T04:56:50.973Z,19.01
2019-06-15T04:57:46.610Z,19.10
2019-06-15T04:58:45.618Z,19.11
2019-06-15T04:59:45.587Z,19.01
2019-06-15T05:00:45.576Z,19.10
2019-06-15T05:01:45.562Z,19.11
2019-06-15T05:02:45.549Z,19.15
2019-06-15T05:03:45.559Z,19.21
2019-06-15T05:04:45.528Z,19.31
2019-06-15T05:05:45.513Z,19.33
2019-06-15T05:06:45.505Z,19.32
2019-06-15T05:07:45.492Z,19.42
2019-06-15T05:08:45.499Z,19.40
2019-06-15T05:09:45.468Z,19.46
2019-06-15T05:10:45.457Z,19.47
2019-06-15T05:11:45.445Z,19.42
2019-06-15T05:12:45.446Z,19.46
2019-06-15T05:13:45.441Z,19.35
2019-06-15T05:14:45.409Z,19.50
2019-06-15T05:15:45.397Z,19.43
2019-06-15T05:16:45.386Z,19.55
2019-06-15T05:17:46.326Z,19.61
2019-06-15T05:18:45.378Z,19.61
2019-06-15T05:19:45.360Z,19.73
2019-06-15T05:20:45.346Z,19.78
2019-06-15T05:21:45.338Z,19.80
2019-06-15T05:22:45.319Z,19.76
2019-06-15T05:23:45.332Z,19.93
2019-06-15T05:24:45.291Z,19.93
2019-06-15T05:25:45.288Z,19.90
2019-06-15T05:26:45.296Z,19.87
2019-06-15T05:27:45.261Z,19.88
2019-06-15T05:28:45.266Z,19.80
2019-06-15T05:29:45.234Z,19.93
2019-06-15T05:30:45.225Z,19.93
2019-06-15T05:31:45.218Z,19.90
2019-06-15T05:32:45.201Z,19.91
2019-06-15T05:33:45.213Z,19.98
2019-06-15T05:34:45.186Z,19.94
2019-06-15T05:35:45.169Z,20.08
2019-06-15T05:36:45.155Z,19.97
2019-06-15T05:37:45.147Z,20.02
2019-06-15T05:38:45.133Z,20.10
2019-06-15T05:39:45.135Z,20.18
2019-06-15T05:40:45.109Z,20.16
2019-06-15T05:41:45.097Z,20.25
2019-06-15T05:42:45.083Z,20.30
2019-06-15T05:43:45.078Z,20.34
2019-06-15T05:44:45.080Z,20.39
2019-06-15T05:45:45.050Z,20.46
2019-06-15T05:46:45.045Z,20.47
2019-06-15T05:47:45.035Z,20.50
2019-06-15T05:48:45.014Z,20.47
2019-06-15T05:49:45.021Z,20.50
2019-06-15T05:50:44.991Z,20.46
2019-06-15T05:51:44.983Z,20.61
2019-06-15T05:52:44.971Z,20.59
2019-06-15T05:53:44.957Z,20.53
2019-06-15T05:54:44.964Z,20.51
2019-06-15T05:55:44.934Z,20.49
2019-06-15T05:56:44.923Z,20.46
2019-06-15T05:57:44.911Z,20.42
2019-06-15T05:58:44.902Z,20.30
2019-06-15T05:59:44.916Z,20.34
2019-06-15T06:00:44.876Z,20.35
2019-06-15T06:01:44.865Z,20.33
2019-06-15T06:02:44.853Z,20.23
2019-06-15T06:03:44.843Z,20.33
2019-06-15T06:04:44.829Z,20.20
2019-06-15T06:05:44.866Z,20.30
2019-06-15T06:06:44.807Z,20.27
2019-06-15T06:07:44.799Z,20.25
2019-06-15T06:08:44.783Z,20.24
2019-06-15T06:09:44.776Z,20.27
2019-06-15T06:10:44.826Z,20.24
2019-06-15T06:11:44.758Z,20.12
2019-06-15T06:12:44.764Z,20.16
2019-06-15T06:13:44.749Z,20.09
2019-06-15T06:14:44.717Z,20.02
2019-06-15T06:15:44.722Z,20.08
2019-06-15T06:16:44.690Z,20.06
2019-06-15T06:17:44.686Z,20.10
2019-06-15T06:18:44.674Z,20.08
2019-06-15T06:19:44.662Z,20.02
2019-06-15T06:20:44.669Z,20.06
2019-06-15T06:21:44.635Z,19.94
2019-06-15T06:22:44.623Z,19.97
2019-06-15T06:23:44.612Z,19.90
2019-06-15T06:24:44.597Z,19.90
2019-06-15T06:25:44.606Z,19.97
2019-06-15T06:26:44.576Z,19.95
2019-06-15T06:27:44.564Z,19.91
2019-06-15T06:28:56.541Z,20.03
2019-06-15T06:29:45.537Z,19.90
2019-06-15T06:30:44.546Z,19.87
2019-06-15T06:31:44.515Z,20.02
2019-06-15T06:32:44.507Z,19.93
2019-06-15T06:33:44.495Z,19.97
2019-06-15T06:34:44.492Z,19.79
2019-06-15T06:35:44.487Z,19.79
2019-06-15T06:36:44.460Z,19.73
2019-06-15T06:37:44.447Z,19.75
2019-06-15T06:38:44.433Z,19.66
2019-06-15T06:39:44.420Z,19.60
2019-06-15T06:40:44.436Z,19.54
2019-06-15T06:41:44.398Z,19.65
2019-06-15T06:42:44.384Z,19.47
2019-06-15T06:43:44.374Z,19.57
2019-06-15T06:44:44.363Z,19.51
2019-06-15T06:45:44.349Z,19.50
2019-06-15T06:46:44.355Z,19.51
2019-06-15T06:47:44.336Z,19.76
2019-06-15T06:48:44.318Z,19.84
2019-06-15T06:49:44.305Z,19.80
2019-06-15T06:50:44.310Z,19.75
2019-06-15T06:51:44.280Z,19.60
2019-06-15T06:52:44.270Z,19.51
2019-06-15T06:53:44.258Z,19.54
2019-06-15T06:54:44.243Z,19.43
2019-06-15T06:55:44.263Z,19.43
2019-06-15T06:56:44.220Z,19.40
2019-06-15T06:57:53.282Z,19.42
2019-06-15T06:58:45.196Z,19.43
2019-06-15T06:59:44.185Z,19.46
2019-06-15T07:00:44.173Z,19.50
2019-06-15T07:01:44.178Z,19.48
2019-06-15T07:02:44.147Z,19.42
2019-06-15T07:03:44.142Z,19.47
2019-06-15T07:04:44.124Z,19.57
2019-06-15T07:05:44.111Z,19.58
2019-06-15T07:06:44.120Z,19.53
2019-06-15T07:07:44.144Z,19.50
2019-06-15T07:08:44.078Z,19.42
2019-06-15T07:09:44.069Z,19.43
2019-06-15T07:10:44.053Z,19.40
2019-06-15T07:11:44.090Z,19.39
2019-06-15T07:12:44.030Z,19.38
2019-06-15T07:13:44.019Z,19.36
2019-06-15T07:14:44.007Z,19.31
2019-06-15T07:15:43.997Z,19.29
2019-06-15T07:16:44.041Z,19.23
2019-06-15T07:17:43.973Z,19.20
2019-06-15T07:18:43.967Z,19.17
2019-06-15T07:19:43.948Z,19.20
2019-06-15T07:20:43.933Z,19.18
2019-06-15T07:21:43.948Z,19.24
2019-06-15T07:22:43.912Z,19.15
2019-06-15T07:23:43.901Z,19.24
2019-06-15T07:24:43.885Z,19.21
2019-06-15T07:25:43.876Z,19.25
2019-06-15T07:26:43.864Z,19.18
2019-06-15T07:27:43.869Z,19.29
2019-06-15T07:28:43.842Z,19.25
2019-06-15T07:29:43.827Z,19.28
2019-06-15T07:30:43.815Z,19.35
2019-06-15T07:31:43.803Z,19.25
2019-06-15T07:32:43.823Z,19.25
2019-06-15T07:33:43.781Z,19.29
2019-06-15T07:34:43.768Z,19.29
2019-06-15T07:35:43.755Z,19.25
2019-06-15T07:36:43.744Z,19.24
2019-06-15T07:37:43.759Z,19.21
2019-06-15T07:38:43.769Z,19.13
2019-06-15T07:39:43.719Z,19.29
2019-06-15T07:40:43.699Z,19.18
2019-06-15T07:41:43.684Z,19.14
2019-06-15T07:42:43.697Z,19.23
2019-06-15T07:43:43.666Z,19.21
2019-06-15T07:44:43.649Z,19.25
2019-06-15T07:45:43.645Z,19.18
2019-06-15T07:46:43.648Z,19.13
2019-06-15T07:47:43.636Z,19.08
2019-06-15T07:48:43.604Z,19.05
2019-06-15T07:49:43.599Z,18.95
2019-06-15T07:50:43.582Z,19.08
2019-06-15T07:51:43.570Z,18.95
2019-06-15T07:52:43.576Z,18.97
2019-06-15T07:53:43.546Z,18.97
2019-06-15T07:54:43.534Z,18.94
2019-06-15T07:55:43.516Z,18.97
2019-06-15T07:56:43.507Z,19.11
2019-06-15T07:57:43.514Z,19.05
2019-06-15T07:58:43.483Z,19.17
2019-06-15T07:59:43.477Z,19.38
2019-06-15T08:00:43.462Z,19.69
2019-06-15T08:01:43.448Z,19.91
2019-06-15T08:02:43.480Z,20.41
2019-06-15T08:03:43.546Z,20.95
2019-06-15T08:04:43.410Z,21.20
2019-06-15T08:05:43.416Z,21.21
2019-06-15T08:06:43.389Z,21.51
2019-06-15T08:07:43.381Z,22.09
2019-06-15T08:08:43.385Z,22.19
2019-06-15T08:09:43.354Z,22.46
2019-06-15T08:10:43.340Z,22.59
2019-06-15T08:11:45.809Z,23.07
2019-06-15T08:12:43.323Z,23.01
2019-06-15T08:13:43.357Z,23.71
2019-06-15T08:14:43.323Z,24.47
2019-06-15T08:15:43.287Z,24.39
2019-06-15T08:16:43.273Z,24.60
2019-06-15T08:17:45.555Z,24.61
2019-06-15T08:18:43.272Z,24.49
2019-06-15T08:19:43.236Z,24.80
2019-06-15T08:20:43.231Z,25.00
2019-06-15T08:21:43.214Z,25.01
2019-06-15T08:22:43.210Z,25.35
2019-06-15T08:23:43.213Z,25.69
2019-06-15T08:24:43.189Z,26.40
2019-06-15T08:25:43.174Z,27.59
2019-06-15T08:26:43.171Z,28.04
2019-06-15T08:27:43.153Z,27.84
2019-06-15T08:28:43.163Z,28.47
2019-06-15T08:29:43.127Z,29.06
2019-06-15T08:30:43.121Z,29.23
2019-06-15T08:31:43.105Z,29.10
2019-06-15T08:32:43.092Z,30.14
2019-06-15T08:33:43.101Z,30.98
2019-06-15T08:34:43.075Z,31.57
2019-06-15T08:35:43.062Z,32.20
2019-06-15T08:36:43.065Z,32.00
2019-06-15T08:37:43.041Z,31.88
2019-06-15T08:38:43.059Z,31.62
2019-06-15T08:39:43.023Z,32.00
2019-06-15T08:40:43.006Z,32.47
2019-06-15T08:41:42.997Z,32.79
2019-06-15T08:42:42.988Z,32.86
2019-06-15T08:43:42.978Z,33.37
2019-06-15T08:44:42.988Z,33.60
2019-06-15T08:45:42.956Z,33.65
2019-06-15T08:46:42.954Z,33.86
2019-06-15T08:47:42.939Z,32.64
2019-06-15T08:48:42.925Z,31.26
2019-06-15T08:49:42.935Z,30.21
2019-06-15T08:50:42.903Z,29.87
2019-06-15T08:51:42.897Z,29.84
2019-06-15T08:52:42.884Z,30.07
2019-06-15T08:53:42.906Z,30.57
2019-06-15T08:54:42.886Z,31.04
2019-06-15T08:55:42.858Z,31.93
2019-06-15T08:56:42.853Z,31.31
2019-06-15T08:57:42.829Z,31.42
2019-06-15T08:58:54.793Z,31.43
2019-06-15T08:59:43.829Z,30.99
2019-06-15T09:00:42.811Z,30.15
2019-06-15T09:01:42.790Z,29.66
2019-06-15T09:02:42.784Z,28.59
2019-06-15T09:03:42.778Z,27.54
2019-06-15T09:04:42.772Z,26.80
2019-06-15T09:05:42.744Z,26.31
2019-06-15T09:06:42.732Z,25.97
2019-06-15T09:07:42.723Z,25.59
2019-06-15T09:08:42.712Z,25.38
2019-06-15T09:09:42.773Z,25.10
2019-06-15T09:10:42.697Z,25.20
2019-06-15T09:11:42.679Z,25.10
2019-06-15T09:12:42.666Z,25.00
2019-06-15T09:13:42.657Z,24.68
2019-06-15T09:14:42.660Z,24.44
2019-06-15T09:15:42.630Z,24.02
2019-06-15T09:16:42.619Z,23.77
2019-06-15T09:17:42.615Z,23.71
2019-06-15T09:18:42.670Z,23.58
2019-06-15T09:19:42.612Z,23.52
2019-06-15T09:20:42.583Z,23.35
2019-06-15T09:21:42.566Z,22.92
2019-06-15T09:22:42.551Z,22.86
2019-06-15T09:23:42.539Z,22.87
2019-06-15T09:24:42.564Z,22.87
2019-06-15T09:25:42.515Z,22.89
2019-06-15T09:26:42.506Z,22.80
2019-06-15T09:27:42.493Z,22.71
2019-06-15T09:28:42.483Z,22.53
2019-06-15T09:29:42.485Z,22.47
2019-06-15T09:30:42.463Z,22.35
2019-06-15T09:31:42.449Z,22.17
2019-06-15T09:32:42.547Z,22.10
2019-06-15T09:33:42.426Z,22.02
2019-06-15T09:34:42.429Z,21.83
2019-06-15T09:35:42.405Z,21.72
2019-06-15T09:36:42.392Z,21.50
2019-06-15T09:37:42.378Z,21.41
2019-06-15T09:38:42.366Z,21.42
2019-06-15T09:39:42.373Z,21.41
2019-06-15T09:40:42.382Z,21.41
2019-06-15T09:41:42.340Z,21.44
2019-06-15T09:42:42.322Z,21.30
2019-06-15T09:43:42.312Z,21.19
2019-06-15T09:44:42.335Z,21.20
2019-06-15T09:45:42.286Z,21.17
2019-06-15T09:46:42.299Z,21.17
2019-06-15T09:47:42.258Z,21.14
2019-06-15T09:48:42.251Z,21.20
2019-06-15T09:49:42.237Z,21.35
2019-06-15T09:50:42.241Z,21.34
2019-06-15T09:51:42.221Z,21.39
2019-06-15T09:52:42.197Z,21.42
2019-06-15T09:53:42.187Z,21.60
2019-06-15T09:54:42.178Z,21.64
2019-06-15T09:55:42.182Z,21.75
2019-06-15T09:56:42.158Z,21.90
2019-06-15T09:57:42.146Z,21.94
2019-06-15T09:58:42.127Z,21.88
2019-06-15T09:59:42.115Z,21.81
2019-06-15T10:00:42.124Z,21.72
2019-06-15T10:01:42.092Z,21.92
2019-06-15T10:02:42.081Z,22.23
2019-06-15T10:03:42.071Z,22.49
2019-06-15T10:04:42.060Z,22.84
2019-06-15T10:05:42.065Z,22.78
2019-06-15T10:06:42.034Z,22.93
2019-06-15T10:07:42.030Z,22.97
2019-06-15T10:08:42.016Z,22.86
2019-06-15T10:09:42.001Z,22.82
2019-06-15T10:10:42.006Z,22.82
2019-06-15T10:11:41.981Z,22.86
2019-06-15T10:12:41.967Z,23.15
2019-06-15T10:13:41.952Z,23.24
2019-06-15T10:14:41.941Z,23.24
2019-06-15T10:15:41.951Z,23.57
2019-06-15T10:16:41.918Z,23.80
2019-06-15T10:17:41.907Z,23.70
2019-06-15T10:18:41.896Z,23.77
2019-06-15T10:19:41.887Z,23.46
2019-06-15T10:20:41.894Z,23.05
2019-06-15T10:21:41.861Z,22.94
2019-06-15T10:22:41.848Z,22.89
2019-06-15T10:23:41.840Z,22.93
2019-06-15T10:24:41.825Z,23.08
2019-06-15T10:25:41.838Z,23.05
2019-06-15T10:26:41.805Z,23.19
2019-06-15T10:27:41.793Z,23.38
2019-06-15T10:28:41.781Z,23.47
2019-06-15T10:29:42.496Z,23.49
2019-06-15T10:30:41.756Z,23.26
2019-06-15T10:31:41.759Z,23.09
2019-06-15T10:32:41.740Z,22.96
2019-06-15T10:33:41.825Z,23.14
2019-06-15T10:34:41.713Z,23.47
2019-06-15T10:35:41.698Z,23.53
2019-06-15T10:36:41.702Z,23.65
2019-06-15T10:37:41.674Z,23.39
2019-06-15T10:38:41.661Z,23.23
2019-06-15T10:39:41.655Z,23.22
2019-06-15T10:40:41.655Z,22.92
2019-06-15T10:41:41.625Z,22.82
2019-06-15T10:42:48.681Z,22.92
2019-06-15T10:43:41.609Z,22.99
2019-06-15T10:44:41.592Z,23.45
2019-06-15T10:45:41.580Z,23.92
2019-06-15T10:46:41.586Z,24.12
2019-06-15T10:47:41.559Z,24.35
2019-06-15T10:48:41.548Z,24.52
2019-06-15T10:49:41.532Z,24.57
2019-06-15T10:50:41.522Z,24.52
2019-06-15T10:51:41.531Z,23.87
2019-06-15T10:52:41.505Z,24.02
2019-06-15T10:53:41.509Z,23.82
2019-06-15T10:54:41.480Z,23.70
2019-06-15T10:55:41.468Z,23.65
2019-06-15T10:56:41.473Z,23.67
2019-06-15T10:57:41.444Z,23.43
2019-06-15T10:58:41.444Z,23.49
2019-06-15T10:59:53.715Z,23.67
2019-06-15T11:00:42.409Z,23.45
2019-06-15T11:01:41.489Z,23.47
2019-06-15T11:02:41.386Z,23.49
2019-06-15T11:03:41.376Z,24.19
2019-06-15T11:04:41.365Z,25.31
2019-06-15T11:05:41.353Z,26.29
2019-06-15T11:06:41.361Z,26.69
2019-06-15T11:07:41.332Z,27.58
2019-06-15T11:08:41.319Z,27.51
2019-06-15T11:09:41.316Z,27.21
2019-06-15T11:10:41.312Z,27.35
2019-06-15T11:11:41.301Z,27.21
2019-06-15T11:12:46.173Z,26.54
2019-06-15T11:13:42.266Z,26.06
2019-06-15T11:14:41.254Z,25.71
2019-06-15T11:15:41.241Z,25.57
2019-06-15T11:16:41.327Z,25.44
2019-06-15T11:17:41.221Z,24.95
2019-06-15T11:18:41.211Z,24.82
2019-06-15T11:19:41.198Z,25.22
2019-06-15T11:20:41.188Z,26.11
2019-06-15T11:21:41.225Z,26.54
2019-06-15T11:22:41.168Z,26.99
2019-06-15T11:23:41.154Z,26.62
2019-06-15T11:24:41.350Z,26.08
2019-06-15T11:25:41.133Z,26.80
2019-06-15T11:26:42.039Z,27.77
2019-06-15T11:27:41.125Z,27.31
2019-06-15T11:28:41.104Z,26.87
2019-06-15T11:29:41.088Z,26.47
2019-06-15T11:30:41.075Z,27.04
2019-06-15T11:31:41.071Z,27.76
2019-06-15T11:32:41.071Z,28.65
2019-06-15T11:33:41.041Z,28.59
2019-06-15T11:34:41.029Z,28.04
2019-06-15T11:35:41.016Z,27.24
2019-06-15T11:36:41.023Z,26.87
2019-06-15T11:37:41.018Z,26.62
2019-06-15T11:38:40.984Z,27.20
2019-06-15T11:39:40.977Z,27.39
2019-06-15T11:40:40.966Z,28.01
2019-06-15T11:41:40.952Z,28.13
2019-06-15T11:42:40.963Z,28.90
2019-06-15T11:43:40.930Z,28.66
2019-06-15T11:44:40.919Z,27.94
2019-06-15T11:45:40.909Z,27.10
2019-06-15T11:46:40.903Z,27.13
2019-06-15T11:47:40.884Z,27.95
2019-06-15T11:48:40.901Z,27.92
2019-06-15T11:49:40.877Z,27.33
2019-06-15T11:50:40.854Z,27.79
2019-06-15T11:51:40.845Z,27.53
2019-06-15T11:52:40.835Z,28.23
2019-06-15T11:53:40.847Z,29.28
2019-06-15T11:54:40.812Z,29.77
2019-06-15T11:55:40.796Z,29.52
2019-06-15T11:56:40.791Z,28.75
2019-06-15T11:57:40.776Z,28.31
2019-06-15T11:58:40.788Z,28.41
2019-06-15T11:59:40.768Z,29.03
2019-06-15T12:00:40.749Z,28.80
2019-06-15T12:01:40.732Z,28.47
2019-06-15T12:02:40.722Z,29.07
2019-06-15T12:03:40.733Z,29.56
2019-06-15T12:04:40.701Z,29.60
2019-06-15T12:05:40.690Z,28.84
2019-06-15T12:06:40.677Z,28.53
2019-06-15T12:07:40.670Z,27.98
2019-06-15T12:08:40.674Z,28.16
2019-06-15T12:09:40.644Z,29.01
2019-06-15T12:10:40.637Z,29.75
2019-06-15T12:11:40.631Z,30.07
2019-06-15T12:12:40.613Z,29.38
2019-06-15T12:13:40.642Z,28.95
2019-06-15T12:14:40.591Z,28.69
2019-06-15T12:15:40.582Z,28.53
2019-06-15T12:16:40.568Z,28.56
2019-06-15T12:17:40.558Z,28.96
2019-06-15T12:18:40.549Z,29.57
2019-06-15T12:19:40.558Z,29.75
2019-06-15T12:20:40.525Z,29.94
2019-06-15T12:21:40.516Z,29.94
2019-06-15T12:22:40.504Z,30.11
2019-06-15T12:23:40.497Z,29.59
2019-06-15T12:24:40.499Z,29.77
2019-06-15T12:25:40.470Z,30.37
2019-06-15T12:26:40.465Z,30.99
2019-06-15T12:27:40.450Z,31.17
2019-06-15T12:28:40.440Z,30.09
2019-06-15T12:29:40.465Z,29.40
2019-06-15T12:30:47.187Z,28.72
2019-06-15T12:31:41.406Z,28.13
2019-06-15T12:32:40.446Z,27.79
2019-06-15T12:33:40.388Z,27.73
2019-06-15T12:34:40.393Z,27.42
2019-06-15T12:35:40.363Z,27.09
2019-06-15T12:36:40.352Z,26.91
2019-06-15T12:37:40.340Z,27.64
2019-06-15T12:38:40.330Z,28.75
2019-06-15T12:39:42.043Z,29.50
2019-06-15T12:40:40.307Z,29.75
2019-06-15T12:41:40.299Z,29.65
2019-06-15T12:42:40.288Z,29.38
2019-06-15T12:43:40.272Z,29.44
2019-06-15T12:44:40.286Z,29.31
2019-06-15T12:45:40.253Z,28.78
2019-06-15T12:46:40.243Z,28.29
2019-06-15T12:47:40.234Z,28.04
2019-06-15T12:48:40.216Z,27.84
2019-06-15T12:49:40.225Z,27.94
2019-06-15T12:50:40.198Z,27.77
2019-06-15T12:51:40.943Z,28.43
2019-06-15T12:52:40.179Z,28.48
2019-06-15T12:53:40.164Z,28.91
2019-06-15T12:54:40.167Z,29.06
2019-06-15T12:55:40.143Z,29.44
2019-06-15T12:56:40.128Z,30.38
2019-06-15T12:57:40.119Z,30.94